createdAt,value
2018-07-20T00:01:21.557Z,4.53
2018-07-20T00:03:49.164Z,3.80
2018-07-20T00:06:16.793Z,5.20
2018-07-20T00:08:44.409Z,4.60
2018-07-20T00:11:12.096Z,4.80
2018-07-20T00:13:39.713Z,5.07
2018-07-20T00:16:07.235Z,4.30
2018-07-20T00:18:34.841Z,4.93
2018-07-20T00:21:02.954Z,4.80
2018-07-20T00:23:30.565Z,4.73
2018-07-20T00:25:59.253Z,5.00
2018-07-20T00:28:26.885Z,4.30
2018-07-20T00:30:54.505Z,4.80
2018-07-20T00:33:22.147Z,5.60
2018-07-20T00:35:49.769Z,6.27
2018-07-20T00:38:17.372Z,5.40
2018-07-20T00:40:45.021Z,5.43
2018-07-20T00:43:12.661Z,5.30
2018-07-20T00:45:40.229Z,5.20
2018-07-20T00:48:07.865Z,4.70
2018-07-20T00:50:35.493Z,5.53
2018-07-20T00:53:03.197Z,5.40
2018-07-20T00:55:30.861Z,5.30
2018-07-20T00:57:58.509Z,4.63
2018-07-20T01:00:26.776Z,5.10
2018-07-20T01:02:54.561Z,5.03
2018-07-20T01:05:23.171Z,5.17
2018-07-20T01:07:50.790Z,5.60
2018-07-20T01:10:18.427Z,6.37
2018-07-20T01:12:46.733Z,5.67
2018-07-20T01:15:14.350Z,5.27
2018-07-20T01:17:41.986Z,5.60
2018-07-20T01:20:10.717Z,6.03
2018-07-20T01:22:38.349Z,5.53
2018-07-20T01:25:06.521Z,5.40
2018-07-20T01:27:34.148Z,5.37
2018-07-20T01:30:01.817Z,5.47
2018-07-20T01:32:29.473Z,5.40
2018-07-20T01:34:58.110Z,6.40
2018-07-20T01:37:25.729Z,5.50
2018-07-20T01:39:53.253Z,5.80
2018-07-20T01:42:20.917Z,5.10
2018-07-20T01:44:48.517Z,5.40
2018-07-20T01:47:16.241Z,5.27
2018-07-20T01:49:43.900Z,5.73
2018-07-20T01:52:12.585Z,5.97
2018-07-20T01:54:40.224Z,5.30
2018-07-20T01:57:07.846Z,6.20
2018-07-20T01:59:35.862Z,5.47
2018-07-20T02:02:03.601Z,6.20
2018-07-20T02:04:32.226Z,5.67
2018-07-20T02:06:59.865Z,6.80
2018-07-20T02:09:27.484Z,6.70
2018-07-20T02:11:55.141Z,5.90
2018-07-20T02:14:23.786Z,6.40
2018-07-20T02:16:52.441Z,6.00
2018-07-20T02:19:20.045Z,6.40
2018-07-20T02:21:47.666Z,6.20
2018-07-20T02:24:15.264Z,6.00
2018-07-20T02:26:42.937Z,6.47
2018-07-20T02:29:10.558Z,6.30
2018-07-20T02:31:39.305Z,6.53
2018-07-20T02:34:07.257Z,5.90
2018-07-20T02:36:34.908Z,5.97
2018-07-20T02:39:02.865Z,6.50
2018-07-20T02:41:30.476Z,6.93
2018-07-20T02:43:59.006Z,6.43
2018-07-20T02:46:26.641Z,6.13
2018-07-20T02:48:54.273Z,5.67
2018-07-20T02:51:21.878Z,6.80
2018-07-20T02:53:49.504Z,6.83
2018-07-20T02:56:17.053Z,6.63
2018-07-20T02:58:44.661Z,6.80
2018-07-20T03:01:12.309Z,6.20
2018-07-20T03:03:40.626Z,7.13
2018-07-20T03:06:08.577Z,6.60
2018-07-20T03:08:36.217Z,6.00
2018-07-20T03:11:04.321Z,6.93
2018-07-20T03:13:32.065Z,6.40
2018-07-20T03:15:59.785Z,6.30
2018-07-20T03:18:28.441Z,6.10
2018-07-20T03:20:56.105Z,6.50
2018-07-20T03:23:23.726Z,7.30
2018-07-20T03:25:51.236Z,6.60
2018-07-20T03:28:18.888Z,6.57
2018-07-20T03:30:46.558Z,6.50
2018-07-20T03:33:14.171Z,6.50
2018-07-20T03:35:41.857Z,6.87
2018-07-20T03:38:09.489Z,6.10
2018-07-20T03:40:37.154Z,6.60
2018-07-20T03:43:04.788Z,7.03
2018-07-20T03:45:32.444Z,6.90
2018-07-20T03:48:00.057Z,7.20
2018-07-20T03:50:27.657Z,7.00
2018-07-20T03:52:55.272Z,7.63
2018-07-20T03:55:22.888Z,6.77
2018-07-20T03:57:50.529Z,7.70
2018-07-20T04:00:18.153Z,6.83
2018-07-20T04:02:45.821Z,7.40
2018-07-20T04:05:13.616Z,7.10
2018-07-20T04:07:41.237Z,7.13
2018-07-20T04:10:08.867Z,6.50
2018-07-20T04:12:36.479Z,8.17
2018-07-20T04:15:05.068Z,6.90
2018-07-20T04:17:37.269Z,6.53
2018-07-20T04:20:05.228Z,6.97
2018-07-20T04:22:32.874Z,7.33
2018-07-20T04:25:00.508Z,6.63
2018-07-20T04:27:28.109Z,6.10
2018-07-20T04:29:55.769Z,6.27
2018-07-20T04:32:23.456Z,6.07
2018-07-20T04:34:51.744Z,6.70
2018-07-20T04:37:19.573Z,6.33
2018-07-20T04:39:48.252Z,6.80
2018-07-20T04:42:15.868Z,7.57
2018-07-20T04:44:43.469Z,7.30
2018-07-20T04:47:11.133Z,6.57
2018-07-20T04:49:38.765Z,6.63
2018-07-20T04:54:40.709Z,6.10
2018-07-20T04:57:08.346Z,6.27
2018-07-20T04:59:35.974Z,6.67
2018-07-20T05:02:03.656Z,6.60
2018-07-20T05:04:31.285Z,6.90
2018-07-20T05:06:58.911Z,6.50
2018-07-20T05:09:26.526Z,6.20
2018-07-20T05:11:55.091Z,6.70
2018-07-20T05:14:22.741Z,6.80
2018-07-20T05:16:50.394Z,6.20
2018-07-20T05:19:18.042Z,7.00
2018-07-20T05:21:46.401Z,6.17
2018-07-20T05:24:14.055Z,6.80
2018-07-20T05:26:41.701Z,6.80
2018-07-20T05:29:09.300Z,6.03
2018-07-20T05:31:36.922Z,6.50
2018-07-20T05:34:04.629Z,6.27
2018-07-20T05:36:32.257Z,7.33
2018-07-20T05:38:59.858Z,6.13
2018-07-20T05:41:27.552Z,6.13
2018-07-20T05:43:55.726Z,6.20
2018-07-20T05:46:24.023Z,6.03
2018-07-20T05:48:51.625Z,6.20
2018-07-20T05:51:19.341Z,6.10
2018-07-20T05:53:46.933Z,6.27
2018-07-20T05:56:14.541Z,6.73
2018-07-20T05:58:42.169Z,6.00
2018-07-20T06:01:09.825Z,5.60
2018-07-20T06:03:37.442Z,6.33
2018-07-20T06:06:05.498Z,6.57
2018-07-20T06:08:33.101Z,5.90
2018-07-20T06:11:00.730Z,6.53
2018-07-20T06:13:28.333Z,6.70
2018-07-20T06:15:55.941Z,5.40
2018-07-20T06:18:23.591Z,5.07
2018-07-20T06:20:51.197Z,6.97
2018-07-20T06:23:18.785Z,5.80
2018-07-20T06:25:46.537Z,5.80
2018-07-20T06:28:14.181Z,6.63
2018-07-20T06:30:41.793Z,6.17
2018-07-20T06:33:09.421Z,5.80
2018-07-20T06:35:37.054Z,6.30
2018-07-20T06:38:05.245Z,6.37
2018-07-20T06:40:32.864Z,6.73
2018-07-20T06:43:00.475Z,6.67
2018-07-20T06:45:28.102Z,6.70
2018-07-20T06:47:55.717Z,6.40
2018-07-20T06:50:23.308Z,6.07
2018-07-20T06:52:50.941Z,5.63
2018-07-20T06:55:18.557Z,6.50
2018-07-20T06:57:46.160Z,5.63
2018-07-20T07:00:13.792Z,6.40
2018-07-20T07:02:41.389Z,5.87
2018-07-20T07:05:10.073Z,5.87
2018-07-20T07:07:37.821Z,6.63
2018-07-20T07:10:05.933Z,6.30
2018-07-20T07:12:33.580Z,6.27
2018-07-20T07:15:01.258Z,6.33
2018-07-20T07:17:28.812Z,5.30
2018-07-20T07:19:56.402Z,5.27
2018-07-20T07:22:24.021Z,6.47
2018-07-20T07:24:52.234Z,5.87
2018-07-20T07:27:20.929Z,6.97
2018-07-20T07:29:48.541Z,5.83
2018-07-20T07:32:16.837Z,6.80
2018-07-20T07:34:45.594Z,6.13
2018-07-20T07:37:13.232Z,6.37
2018-07-20T07:39:40.844Z,5.43
2018-07-20T07:42:08.502Z,5.57
2018-07-20T07:44:36.197Z,5.70
2018-07-20T07:47:03.878Z,5.40
2018-07-20T07:49:32.057Z,5.87
2018-07-20T07:52:00.458Z,6.47
2018-07-20T07:54:28.696Z,6.30
2018-07-20T07:56:56.293Z,5.57
2018-07-20T07:59:23.872Z,6.73
2018-07-20T08:01:51.384Z,5.50
2018-07-20T08:04:18.997Z,5.80
2018-07-20T08:06:46.654Z,6.10
2018-07-20T08:09:14.513Z,6.30
2018-07-20T08:11:42.711Z,5.13
2018-07-20T08:14:11.872Z,5.60
2018-07-20T08:16:39.540Z,5.30
2018-07-20T08:19:07.223Z,4.93
2018-07-20T08:21:35.557Z,4.90
2018-07-20T08:24:03.241Z,4.33
2018-07-20T08:26:30.852Z,5.33
2018-07-20T08:28:58.494Z,4.80
2018-07-20T08:31:27.160Z,5.13
2018-07-20T08:33:54.787Z,5.03
2018-07-20T08:36:22.768Z,5.00
2018-07-20T08:38:51.147Z,4.60
2018-07-20T08:41:19.254Z,4.13
2018-07-20T08:43:46.851Z,4.40
2018-07-20T08:46:14.433Z,5.30
2018-07-20T08:48:42.067Z,4.20
2018-07-20T08:51:09.662Z,4.37
2018-07-20T08:53:37.293Z,3.97
2018-07-20T08:56:05.151Z,3.90
2018-07-20T08:58:32.773Z,4.53
2018-07-20T09:01:00.374Z,4.50
2018-07-20T09:03:27.995Z,4.47
2018-07-20T09:05:56.709Z,4.90
2018-07-20T09:08:24.302Z,4.33
2018-07-20T09:10:51.952Z,4.80
2018-07-20T09:13:19.606Z,4.83
2018-07-20T09:15:47.770Z,4.03
2018-07-20T09:18:15.389Z,5.07
2018-07-20T09:20:43.102Z,3.90
2018-07-20T09:23:10.677Z,3.50
2018-07-20T09:25:38.274Z,4.27
2018-07-20T09:28:06.566Z,4.40
2018-07-20T09:30:34.840Z,4.23
2018-07-20T09:33:02.443Z,3.90
2018-07-20T09:35:31.080Z,3.73
2018-07-20T09:37:59.772Z,4.23
2018-07-20T09:40:27.422Z,4.20
2018-07-20T09:42:55.082Z,4.00
2018-07-20T09:45:22.760Z,4.43
2018-07-20T09:47:50.352Z,4.47
2018-07-20T09:50:18.054Z,4.00
2018-07-20T09:52:45.649Z,3.80
2018-07-20T09:55:13.267Z,3.87
2018-07-20T09:57:40.868Z,3.90
2018-07-20T10:00:08.500Z,3.63
2018-07-20T10:02:36.124Z,4.63
2018-07-20T10:05:04.033Z,5.00
2018-07-20T10:07:31.536Z,3.50
2018-07-20T10:09:59.168Z,4.87
2018-07-20T10:12:26.812Z,4.30
2018-07-20T10:14:54.408Z,3.90
2018-07-20T10:17:22.078Z,4.00
2018-07-20T10:19:49.701Z,4.13
2018-07-20T10:22:17.346Z,4.33
2018-07-20T10:24:45.001Z,4.43
2018-07-20T10:27:12.625Z,4.70
2018-07-20T10:29:40.249Z,4.43
2018-07-20T10:32:08.461Z,4.50
2018-07-20T10:34:36.100Z,4.53
2018-07-20T10:37:03.710Z,4.50
2018-07-20T10:39:31.960Z,5.17
2018-07-20T10:42:00.201Z,3.70
2018-07-20T10:44:28.628Z,4.13
2018-07-20T10:46:56.284Z,4.40
2018-07-20T10:49:23.815Z,4.77
2018-07-20T10:51:51.385Z,4.57
2018-07-20T10:54:18.953Z,4.43
2018-07-20T10:56:46.549Z,4.30
2018-07-20T10:59:14.105Z,3.73
2018-07-20T11:01:41.727Z,5.00
2018-07-20T11:04:09.328Z,5.47
2018-07-20T11:06:36.909Z,4.20
2018-07-20T11:09:06.676Z,4.93
2018-07-20T11:11:34.360Z,4.60
2018-07-20T11:14:01.929Z,4.80
2018-07-20T11:16:29.623Z,4.23
2018-07-20T11:18:57.202Z,4.50
2018-07-20T11:21:24.823Z,4.10
2018-07-20T11:23:52.541Z,4.53
2018-07-20T11:26:20.138Z,4.90
2018-07-20T11:28:47.723Z,4.63
2018-07-20T11:31:15.928Z,4.40
2018-07-20T11:33:43.473Z,4.37
2018-07-20T11:36:11.054Z,4.23
2018-07-20T11:38:38.661Z,3.83
2018-07-20T11:41:06.250Z,4.60
2018-07-20T11:43:33.856Z,4.50
2018-07-20T11:46:02.776Z,4.03
2018-07-20T11:48:30.357Z,4.47
2018-07-20T11:50:57.926Z,4.87
2018-07-20T11:53:26.328Z,4.63
2018-07-20T11:55:54.601Z,3.93
2018-07-20T11:58:22.480Z,4.90
2018-07-20T12:00:50.058Z,4.57
2018-07-20T12:03:17.649Z,4.50
2018-07-20T12:05:45.617Z,4.10
2018-07-20T12:08:14.142Z,4.40
2018-07-20T12:10:41.732Z,4.57
2018-07-20T12:13:09.350Z,4.60
2018-07-20T12:15:36.976Z,4.73
2018-07-20T12:18:04.537Z,4.47
2018-07-20T12:20:32.156Z,4.63
2018-07-20T12:22:59.738Z,4.40
2018-07-20T12:25:27.316Z,5.07
2018-07-20T12:27:54.881Z,4.80
2018-07-20T12:30:24.462Z,4.00
2018-07-20T12:32:53.045Z,4.17
2018-07-20T12:35:20.645Z,4.60
2018-07-20T12:37:48.201Z,4.10
2018-07-20T12:40:15.802Z,4.63
2018-07-20T12:42:43.405Z,4.27
2018-07-20T12:45:10.977Z,4.67
2018-07-20T12:47:38.577Z,4.43
2018-07-20T12:50:06.203Z,4.30
2018-07-20T12:52:33.760Z,4.70
2018-07-20T12:55:01.341Z,3.83
2018-07-20T12:57:29.266Z,3.73
2018-07-20T12:59:57.371Z,3.90
2018-07-20T13:02:24.984Z,3.63
2018-07-20T13:04:52.590Z,3.87
2018-07-20T13:07:20.884Z,3.87
2018-07-20T13:09:48.455Z,4.10
2018-07-20T13:12:16.103Z,3.80
2018-07-20T13:14:43.753Z,4.00
2018-07-20T13:17:11.800Z,4.10
2018-07-20T13:19:39.402Z,4.10
2018-07-20T13:22:07.769Z,4.30
2018-07-20T13:24:35.351Z,4.33
2018-07-20T13:27:02.985Z,4.57
2018-07-20T13:29:30.581Z,4.80
2018-07-20T13:31:58.728Z,4.57
2018-07-20T13:34:26.281Z,4.57
2018-07-20T13:36:53.901Z,4.47
2018-07-20T13:39:21.527Z,4.57
2018-07-20T13:41:49.876Z,4.53
2018-07-20T13:44:17.480Z,4.30
2018-07-20T13:46:45.062Z,4.90
2018-07-20T13:49:12.668Z,4.20
2018-07-20T13:51:40.252Z,4.43
2018-07-20T13:54:08.189Z,5.10
2018-07-20T13:56:36.806Z,4.20
2018-07-20T13:59:04.654Z,4.27
2018-07-20T14:01:32.320Z,4.77
2018-07-20T14:04:00.082Z,4.77
2018-07-20T14:06:28.837Z,4.90
2018-07-20T14:08:57.288Z,5.13
2018-07-20T14:11:25.060Z,3.50
2018-07-20T14:13:52.677Z,3.90
2018-07-20T14:16:20.295Z,3.90
2018-07-20T14:18:47.901Z,5.00
2018-07-20T14:21:15.492Z,4.50
2018-07-20T14:23:43.564Z,4.40
2018-07-20T14:26:11.153Z,4.40
2018-07-20T14:28:38.729Z,4.60
2018-07-20T14:31:06.450Z,4.80
2018-07-20T14:33:34.021Z,4.63
2018-07-20T14:36:01.599Z,4.83
2018-07-20T14:38:29.221Z,4.53
2018-07-20T14:40:56.805Z,4.93
2018-07-20T14:43:24.741Z,4.73
2018-07-20T14:45:52.565Z,4.73
2018-07-20T14:48:20.116Z,4.97
2018-07-20T14:50:47.825Z,4.97
2018-07-20T14:53:15.373Z,4.83
2018-07-20T14:55:43.077Z,4.73
2018-07-20T14:58:10.626Z,4.97
2018-07-20T15:00:38.592Z,6.40
2018-07-20T15:03:06.179Z,5.50
2018-07-20T15:05:33.765Z,5.53
2018-07-20T15:08:01.457Z,5.53
2018-07-20T15:10:29.089Z,5.33
2018-07-20T15:12:56.680Z,5.50
2018-07-20T15:15:24.275Z,5.50
2018-07-20T15:17:51.932Z,5.10
2018-07-20T15:20:19.517Z,5.80
2018-07-20T15:22:48.725Z,4.60
2018-07-20T15:25:16.928Z,4.80
2018-07-20T15:27:44.521Z,4.57
2018-07-20T15:30:12.117Z,4.60
2018-07-20T15:32:40.715Z,4.50
2018-07-20T15:35:08.294Z,4.43
2018-07-20T15:37:35.917Z,4.23
2018-07-20T15:40:03.611Z,3.70
2018-07-20T15:42:31.240Z,4.43
2018-07-20T15:44:58.817Z,3.90
2018-07-20T15:47:26.521Z,4.00
2018-07-20T15:49:54.021Z,4.10
2018-07-20T15:54:50.326Z,4.30
2018-07-20T15:57:17.926Z,4.57
2018-07-20T15:59:45.579Z,4.10
2018-07-20T16:02:13.118Z,3.73
2018-07-20T16:04:40.933Z,3.80
2018-07-20T16:07:08.816Z,4.70
2018-07-20T16:09:36.385Z,4.37
2018-07-20T16:12:04.031Z,4.30
2018-07-20T16:14:32.609Z,4.10
2018-07-20T16:17:00.208Z,4.97
2018-07-20T16:19:27.814Z,4.60
2018-07-20T16:21:55.394Z,4.30
2018-07-20T16:24:22.973Z,4.93
2018-07-20T16:26:51.625Z,4.50
2018-07-20T16:29:19.200Z,4.50
2018-07-20T16:31:46.821Z,5.33
2018-07-20T16:34:14.417Z,4.10
2018-07-20T16:36:42.016Z,4.23
2018-07-20T16:39:10.279Z,3.80
2018-07-20T16:41:37.877Z,4.43
2018-07-20T16:44:05.484Z,4.23
2018-07-20T16:46:33.156Z,4.57
2018-07-20T16:49:00.762Z,4.70
2018-07-20T16:51:28.353Z,4.70
2018-07-20T16:53:55.944Z,4.30
2018-07-20T16:56:23.513Z,4.93
2018-07-20T16:58:51.101Z,4.80
2018-07-20T17:01:19.732Z,5.10
2018-07-20T17:03:47.308Z,4.93
2018-07-20T17:06:15.549Z,4.47
2018-07-20T17:08:43.225Z,4.70
2018-07-20T17:11:10.771Z,4.80
2018-07-20T17:13:38.325Z,4.90
2018-07-20T17:16:06.577Z,4.60
2018-07-20T17:18:34.196Z,4.90
2018-07-20T17:21:01.797Z,4.90
2018-07-20T17:23:29.385Z,5.63
2018-07-20T17:25:57.009Z,4.80
2018-07-20T17:28:24.597Z,5.63
2018-07-20T17:30:52.206Z,6.20
2018-07-20T17:33:19.799Z,6.00
2018-07-20T17:35:47.374Z,6.10
2018-07-20T17:38:14.931Z,6.03
2018-07-20T17:40:43.525Z,6.00
2018-07-20T17:43:11.120Z,6.40
2018-07-20T17:45:38.726Z,5.53
2018-07-20T17:48:06.974Z,5.30
2018-07-20T17:50:41.394Z,5.60
2018-07-20T17:53:09.289Z,5.43
2018-07-20T17:55:36.920Z,6.20
2018-07-20T17:58:04.506Z,5.80
2018-07-20T18:00:32.120Z,5.10
2018-07-20T18:03:00.317Z,5.77
2018-07-20T18:05:28.937Z,6.20
2018-07-20T18:07:56.621Z,5.57
2018-07-20T18:10:25.539Z,4.80
2018-07-20T18:12:53.436Z,4.93
2018-07-20T18:15:21.047Z,5.60
2018-07-20T18:17:48.703Z,5.30
2018-07-20T18:20:16.380Z,5.00
2018-07-20T18:22:44.441Z,5.37
2018-07-20T18:25:12.737Z,5.43
2018-07-20T18:27:40.293Z,6.03
2018-07-20T18:30:08.598Z,5.63
2018-07-20T18:32:36.208Z,5.20
2018-07-20T18:35:03.964Z,5.93
2018-07-20T18:37:31.813Z,5.50
2018-07-20T18:40:00.053Z,5.70
2018-07-20T18:42:27.656Z,5.63
2018-07-20T18:44:55.235Z,4.70
2018-07-20T18:47:23.417Z,5.93
2018-07-20T18:49:51.728Z,5.83
2018-07-20T18:52:19.667Z,5.27
2018-07-20T18:54:47.275Z,6.20
2018-07-20T18:57:14.832Z,5.90
2018-07-20T18:59:42.505Z,5.30
2018-07-20T19:02:10.730Z,6.10
2018-07-20T19:04:38.333Z,5.73
2018-07-20T19:07:05.939Z,6.03
2018-07-20T19:09:33.542Z,5.80
2018-07-20T19:12:01.174Z,6.20
2018-07-20T19:14:29.357Z,7.00
2018-07-20T19:16:56.920Z,6.60
2018-07-20T19:19:24.505Z,6.27
2018-07-20T19:21:52.089Z,5.80
2018-07-20T19:24:19.697Z,6.43
2018-07-20T19:26:47.296Z,5.93
2018-07-20T19:29:14.873Z,5.73
2018-07-20T19:31:42.366Z,6.00
2018-07-20T19:34:10.006Z,6.13
2018-07-20T19:36:37.612Z,6.60
2018-07-20T19:39:07.421Z,6.20
2018-07-20T19:41:35.034Z,6.63
2018-07-20T19:44:02.637Z,5.63
2018-07-20T19:46:30.206Z,6.00
2018-07-20T19:48:57.812Z,5.50
2018-07-20T19:51:25.415Z,6.50
2018-07-20T19:53:52.997Z,6.03
2018-07-20T19:56:20.591Z,5.83
2018-07-20T19:58:48.289Z,5.40
2018-07-20T20:01:16.050Z,6.00
2018-07-20T20:03:43.672Z,6.13
2018-07-20T20:06:11.381Z,5.40
2018-07-20T20:08:38.981Z,6.53
2018-07-20T20:11:06.545Z,5.30
2018-07-20T20:13:34.054Z,5.17
2018-07-20T20:16:01.809Z,5.50
2018-07-20T20:18:29.393Z,6.67
2018-07-20T20:20:56.965Z,6.13
2018-07-20T20:23:24.576Z,6.83
2018-07-20T20:25:52.133Z,6.33
2018-07-20T20:28:20.760Z,6.43
2018-07-20T20:30:48.438Z,5.33
2018-07-20T20:33:16.045Z,5.87
2018-07-20T20:35:43.755Z,5.67
2018-07-20T20:38:11.302Z,5.97
2018-07-20T20:40:38.893Z,6.13
2018-07-20T20:43:06.500Z,5.87
2018-07-20T20:45:34.106Z,6.30
2018-07-20T20:48:01.689Z,5.83
2018-07-20T20:50:30.293Z,6.20
2018-07-20T20:52:57.918Z,6.10
2018-07-20T20:55:26.480Z,6.07
2018-07-20T20:57:54.082Z,6.40
2018-07-20T21:00:21.697Z,6.43
2018-07-20T21:02:49.640Z,5.77
2018-07-20T21:05:17.245Z,5.67
2018-07-20T21:07:44.864Z,6.80
2018-07-20T21:10:13.177Z,6.00
2018-07-20T21:12:40.762Z,5.87
2018-07-20T21:15:08.389Z,6.20
2018-07-20T21:17:37.021Z,5.60
2018-07-20T21:20:04.949Z,6.63
2018-07-20T21:22:32.533Z,6.17
2018-07-20T21:25:01.220Z,5.80
2018-07-20T21:27:28.797Z,6.90
2018-07-20T21:29:56.392Z,6.40
2018-07-20T21:32:23.961Z,6.43
2018-07-20T21:34:51.568Z,6.90
2018-07-20T21:37:19.068Z,7.40
2018-07-20T21:39:46.663Z,6.73
2018-07-20T21:42:14.243Z,6.80
2018-07-20T21:44:42.177Z,7.70
2018-07-20T21:47:10.009Z,7.20
2018-07-20T21:49:37.593Z,7.90
2018-07-20T21:52:05.198Z,7.20
2018-07-20T21:54:32.704Z,7.60
2018-07-20T21:57:00.301Z,7.00
2018-07-20T21:59:27.961Z,6.47
2018-07-20T22:01:55.557Z,7.40
2018-07-20T22:04:24.089Z,7.40
2018-07-20T22:06:51.705Z,6.83
2018-07-20T22:09:19.309Z,6.87
2018-07-20T22:11:46.889Z,7.03
2018-07-20T22:14:14.468Z,6.90
2018-07-20T22:16:42.097Z,6.53
2018-07-20T22:19:09.696Z,5.87
2018-07-20T22:21:37.320Z,6.57
2018-07-20T22:24:06.096Z,5.77
2018-07-20T22:26:33.697Z,6.20
2018-07-20T22:29:01.342Z,5.37
2018-07-20T22:31:28.949Z,6.67
2018-07-20T22:33:56.536Z,5.50
2018-07-20T22:36:24.131Z,5.70
2018-07-20T22:38:51.768Z,5.10
2018-07-20T22:41:19.956Z,5.57
2018-07-20T22:43:48.120Z,4.83
2018-07-20T22:46:15.713Z,5.10
2018-07-20T22:48:44.181Z,4.60
2018-07-20T22:51:11.778Z,5.17
2018-07-20T22:53:39.368Z,5.60
2018-07-20T22:56:06.940Z,4.13
2018-07-20T22:58:34.598Z,4.40
2018-07-20T23:01:02.397Z,4.63
2018-07-20T23:03:30.030Z,4.60
2018-07-20T23:05:57.620Z,4.63
2018-07-20T23:08:25.784Z,4.70
2018-07-20T23:10:53.953Z,5.00
2018-07-20T23:13:21.552Z,4.90
2018-07-20T23:15:49.141Z,4.70
2018-07-20T23:18:16.732Z,4.67
2018-07-20T23:20:44.382Z,5.67
2018-07-20T23:23:11.970Z,5.03
2018-07-20T23:25:39.620Z,4.90
2018-07-20T23:28:07.221Z,5.47
2018-07-20T23:30:34.825Z,5.73
2018-07-20T23:33:02.442Z,6.20
2018-07-20T23:35:30.049Z,6.00
2018-07-20T23:37:57.632Z,4.87
2018-07-20T23:40:25.242Z,4.90
2018-07-20T23:42:52.843Z,6.07
2018-07-20T23:45:20.450Z,5.93
2018-07-20T23:47:48.053Z,5.20
2018-07-20T23:50:15.673Z,5.17
2018-07-20T23:52:43.300Z,5.87
2018-07-20T23:55:11.636Z,5.33
2018-07-20T23:57:39.356Z,5.00
